Historique des mesures à Cassis (13260), France
Quotidien Résumé Mars 12, 2021 Unités:  Métrique/US    US   Métrique
Quotidien Hebdomadaire Mensuel Annuel
  Maximum: Minimum: Moyenne:
Température: 89.2 °F /  31.8 °C 68.9 °F /  20.5 °C 79.2 °F /  26.2 °C
Point de rosée: 68.5 °F /  20.3 °C 55.4 °F /  13 °C 62.8 °F /  17.1 °C
Humidité: 69% 46% 58%
Vitesse du vent: 4mph /  6.5km/h - 1.7mph /  2.8km/h
Rafales: 8.3mph /  13.3km/h - -
Vent- - SW
Pression: 30 in /  1016.3 hPa 29.9 in /  1014.0 hPa -
Précipitations: 0 in /  0.0 mm    
Historical Graphs
 
 
Mesures pour : Mars 12, 2021
Heure Temperature Point de rosée Pression Vent Vitesse du vent Rafales Humidité Pluie (par heure)
00:10 71.8 °F /  22.1 °C 56.7 °F /  13.7 °C 29.9in /  1014.0hPa Calm     59% 0in /  0.0mm
01:10 70.3 °F /  21.3 °C 56.3 °F /  13.5 °C 30in /  1014.6hPa Calm   3.1mph /  5km/h 61% 0in /  0.0mm
02:10 69.4 °F /  20.8 °C 57.2 °F /  14 °C 30in /  1014.2hPa NW 3.1mph /  5km/h 4.7mph /  7.6km/h 65% 0in /  0.0mm
03:10 68.9 °F /  20.5 °C 56.1 °F /  13.4 °C 29.9in /  1014.0hPa NW 4mph /  6.5km/h 5.8mph /  9.4km/h 64% 0in /  0.0mm
04:10 68.9 °F /  20.5 °C 55.4 °F /  13 °C 29.9in /  1014.0hPa WNW 3.1mph /  5km/h 3.8mph /  6.1km/h 62% 0in /  0.0mm
05:10 69.6 °F /  20.9 °C 56.5 °F /  13.6 °C 30in /  1014.3hPa Calm   2mph /  3.2km/h 63% 0in /  0.0mm
06:10 68.9 °F /  20.5 °C 56.7 °F /  13.7 °C 30in /  1014.4hPa WNW 3.8mph /  6.1km/h 4.2mph /  6.8km/h 65% 0in /  0.0mm
07:10 70.7 °F /  21.5 °C 57.9 °F /  14.4 °C 30in /  1014.9hPa WNW 1.8mph /  2.9km/h 2mph /  3.2km/h 64% 0in /  0.0mm
08:10 89.2 °F /  31.8 °C 65.7 °F /  18.7 °C 30in /  1015.2hPa WNW 1.4mph /  2.2km/h 3.8mph /  6.1km/h 46% 0in /  0.0mm
09:10 80.8 °F /  27.1 °C 60.4 °F /  15.8 °C 30in /  1015.6hPa WNW 4mph /  6.5km/h 4.7mph /  7.6km/h 50% 0in /  0.0mm
10:10 81.1 °F /  27.3 °C 62.2 °F /  16.8 °C 30in /  1015.8hPa SSE 3.1mph /  5km/h 3.8mph /  6.1km/h 53% 0in /  0.0mm
11:10 85.8 °F /  29.9 °C 65.7 °F /  18.7 °C 30in /  1016.2hPa SE 2.9mph /  4.7km/h 4.9mph /  7.9km/h 51% 0in /  0.0mm
12:10 87.1 °F /  30.6 °C 66.7 °F /  19.3 °C 30in /  1016.3hPa SE 3.8mph /  6.1km/h 7mph /  11.2km/h 51% 0in /  0.0mm
13:10 87.4 °F /  30.8 °C 67.6 °F /  19.8 °C 30in /  1016.3hPa SSE 2.9mph /  4.7km/h 6.3mph /  10.1km/h 52% 0in /  0.0mm
14:10 88.3 °F /  31.3 °C 68.5 °F /  20.3 °C 30in /  1016.2hPa Calm   5.6mph /  9km/h 52% 0in /  0.0mm
15:10 86.2 °F /  30.1 °C 67.1 °F /  19.5 °C 30in /  1016.2hPa Calm   5.6mph /  9km/h 53% 0in /  0.0mm
16:10 86.4 °F /  30.2 °C 66.7 °F /  19.3 °C 30in /  1015.7hPa ESE 3.4mph /  5.4km/h 8.3mph /  13.3km/h 52% 0in /  0.0mm
17:10 85.8 °F /  29.9 °C 65.7 °F /  18.7 °C 30in /  1015.7hPa SE 2.7mph /  4.3km/h 3.6mph /  5.8km/h 51% 0in /  0.0mm
18:10 85.1 °F /  29.5 °C 67.6 °F /  19.8 °C 30in /  1015.2hPa Calm   4.9mph /  7.9km/h 56% 0in /  0.0mm
19:10 84.4 °F /  29.1 °C 67.5 °F /  19.7 °C 30in /  1015.1hPa Calm   5.3mph /  8.6km/h 57% 0in /  0.0mm
20:10 82.9 °F /  28.3 °C 66.6 °F /  19.2 °C 30in /  1015.5hPa Calm   3.1mph /  5km/h 58% 0in /  0.0mm
21:10 79.3 °F /  26.3 °C 66 °F /  18.9 °C 30in /  1015.4hPa Calm   0.9mph /  1.4km/h 64% 0in /  0.0mm
22:10 76.3 °F /  24.6 °C 64.9 °F /  18.3 °C 30in /  1015.4hPa Calm     68% 0in /  0.0mm
23:10 74.1 °F /  23.4 °C 63.3 °F /  17.4 °C 30in /  1015.5hPa ESE 1.1mph /  1.8km/h 2.5mph /  4km/h 69% 0in /  0.0mm
Observations météo à CASSIS
WU-History script by Weather Underground - 2 mb